• Join FlightAware (Why Join?)
  • Login
  • US Flag 
09:50PM EDT


 

Airport Tracker/Info


-or-


 

Live Flight TrackerFlight Track Log ✈ SWA3206 ✈ 03-May-2013 ✈ KSAN - KPHX

Flight Track Log - Related Links

Times and Time Zones

All times are in EDT time to prevent confusion due to time zone crossing. See the SWA3206 flight status page for this flight to view local times or setup timezone preferences in your user account.

Time Position Orientation Groundspeed Altitude Reporting Facility
EDT Latitude Longitude Course Direction KTS MPH feet Rate Location/Type
06:58PM 32.7433 -117.2192 90° East 167 192 1,600  Level Los Angeles Center
06:59PM 32.7547 -117.2792 283° West 195 224 3,900 3,180 Climbing Los Angeles Center
07:00PM 32.6992 -117.3250 215° Southwest 248 285 8,200 3,720 Climbing Los Angeles Center
07:01PM 32.6525 -117.2594 130° Southeast 259 298 11,700 2,460 Climbing Los Angeles Center
07:02PM 32.6367 -117.1522 100° East 327 376 13,400 2,340 Climbing Los Angeles Center
07:03PM 32.6186 -117.0319 100° East 363 418 16,600 3,000 Climbing Los Angeles Center
07:04PM 32.6167 -116.7782 90° East  Level FlightAware Approximate
07:04PM 32.6178 -116.9031 90° East 392 451 19,600  Level Los Angeles Center
07:05PM 32.6344 -116.7367 83° East 423 487 22,800 2,700 Climbing Los Angeles Center
07:06PM 32.6478 -116.5950 84° East 436 502 25,200 2,160 Climbing Los Angeles Center
07:07PM 32.6619 -116.4492 83° East 452 520 27,300 1,800 Climbing Los Angeles Center
07:08PM 32.6758 -116.3033 84° East 454 522 29,000 780 Climbing Los Angeles Center
07:09PM 32.6892 -116.1558 84° East 457 526 29,000  Level Los Angeles Center
07:11PM 32.7064 -115.9800 83° East 454 522 29,000  Level Los Angeles Center
07:12PM 32.7197 -115.8325 84° East 453 521 29,000  Level Los Angeles Center
07:13PM 32.7333 -115.6858 84° East 451 519 29,000  Level Los Angeles Center
07:14PM 32.7464 -115.5381 84° East 452 520 29,000  Level Los Angeles Center
07:15PM 32.7533 -115.3875 87° East 460 529 29,000  Level Los Angeles Center
07:16PM 32.7586 -115.2056 88° East 460 529 29,000  Level Los Angeles Center
07:17PM 32.7628 -115.0556 88° East 458 527 29,000  Level Los Angeles Center
07:18PM 32.7650 -114.9036 89° East 460 529 29,000  Level Los Angeles Center
07:19PM 32.7675 -114.7533 89° East 459 528 29,000  Level Los Angeles Center
07:20PM 32.7711 -114.6028 88° East 455 524 29,000  Level Los Angeles Center
07:21PM 32.7728 -114.4517 89° East 457 526 29,000 -480 Level Los Angeles Center
07:22PM 32.7747 -114.2711 89° East 458 527 28,100 -1,620 Descending Los Angeles Center
07:23PM 32.7733 -114.1228 91° East 452 520 25,700 -2,040 Descending Los Angeles Center
07:23PM 32.7747 -114.0447 89° East 452 520 25,000 -480 Descending Albuquerque Center
07:24PM 32.7819 -113.9000 87° East 445 512 25,000  Level Albuquerque Center
07:25PM 32.8067 -113.7578 78° East 441 507 25,000  Level Albuquerque Center
07:27PM 32.8603 -113.6300 63° Northeast 439 505 25,000 -480 Level Albuquerque Center
07:28PM 32.9242 -113.5078 58° Northeast 431 496 24,100 -1,560 Descending Albuquerque Center
07:29PM 32.9858 -113.3889 58° Northeast 423 487 21,900 -2,100 Descending Albuquerque Center
07:30PM 33.0436 -113.2764 58° Northeast 405 466 19,800 -2,100 Descending Albuquerque Center
07:31PM 33.1008 -113.1678 58° Northeast 391 450 17,600 -2,100 Descending Albuquerque Center
07:32PM 33.1550 -113.0611 59° Northeast 380 437 15,500 -2,040 Descending Albuquerque Center
07:33PM 33.2086 -112.9589 58° Northeast 370 426 13,500 -1,860 Descending Albuquerque Center
07:34PM 33.2697 -112.8386 59° Northeast 356 410 11,700 -1,560 Descending Albuquerque Center
07:35PM 33.3078 -112.7444 64° Northeast 324 373 10,400 -900 Descending Albuquerque Center
07:36PM 33.3406 -112.6558 66° East 300 345 9,900 -840 Descending Albuquerque Center
07:37PM 33.3706 -112.5817 64° Northeast 272 313 8,800 -960 Descending Albuquerque Center
07:38PM 33.4008 -112.5019 66° East 258 297 8,000 -840 Descending Albuquerque Center
07:39PM 33.4264 -112.4308 67° East 236 272 7,100 -1,020 Descending Albuquerque Center
07:40PM 33.4286 -112.3439 88° East 225 259 5,900 -1,020 Descending Albuquerque Center
07:41PM 33.4286 -112.2728 90° East 216 249 5,100 -960 Descending Albuquerque Center
07:42PM 33.4289 -112.1997 90° East 218 251 4,000 -1,020 Descending Albuquerque Center
07:43PM 33.4300 -112.1314 89° East 208 239 3,100 -900 Descending Albuquerque Center
07:44PM 33.4311 -112.0736 89° East 175 201 2,200 -1,020 Descending Albuquerque Center
07:45PM 33.4308 -112.0258 90° East 148 170 1,100 -1,140 Descending Albuquerque Center
07:47PM 33.4343 -112.0116 90° East  Level Estimated